createdAt,value
2023-01-31T00:00:41.252Z,102029.97
2023-01-31T00:03:11.842Z,102002.53
2023-01-31T00:05:40.144Z,102021.75
2023-01-31T00:08:08.231Z,102015.84
2023-01-31T00:10:37.387Z,102015.94
2023-01-31T00:13:05.356Z,102027.38
2023-01-31T00:15:42.055Z,102016.78
2023-01-31T00:18:16.637Z,102013.28
2023-01-31T00:20:51.252Z,102021.91
2023-01-31T00:23:25.348Z,102006.25
2023-01-31T00:25:53.351Z,102028.09
2023-01-31T00:28:21.560Z,102030.66
2023-01-31T00:30:50.896Z,102030.50
2023-01-31T00:33:18.995Z,102027.03
2023-01-31T00:35:47.183Z,102005.66
2023-01-31T00:38:15.070Z,102011.66
2023-01-31T00:40:43.507Z,102015.84
2023-01-31T00:43:11.482Z,102008.16
2023-01-31T00:45:39.585Z,101999.59
2023-01-31T00:48:09.075Z,101991.53
2023-01-31T00:50:37.855Z,101982.56
2023-01-31T00:53:08.393Z,101969.31
2023-01-31T00:55:38.528Z,101989.47
2023-01-31T00:58:09.107Z,101993.06
2023-01-31T01:00:40.634Z,101975.66
2023-01-31T01:03:09.934Z,101970.31
2023-01-31T01:05:38.803Z,101970.22
2023-01-31T01:08:12.923Z,101964.91
2023-01-31T01:10:41.902Z,101957.88
2023-01-31T01:13:11.927Z,101956.06
2023-01-31T01:15:42.105Z,101947.28
2023-01-31T01:18:11.725Z,101944.78
2023-01-31T01:20:40.121Z,101932.44
2023-01-31T01:23:09.194Z,101933.38
2023-01-31T01:25:43.842Z,101943.31
2023-01-31T01:28:12.606Z,101926.72
2023-01-31T01:30:40.894Z,101941.53
2023-01-31T01:33:08.883Z,101937.09
2023-01-31T01:35:38.124Z,101929.19
2023-01-31T01:38:06.327Z,101943.94
2023-01-31T01:40:38.662Z,101943.00
2023-01-31T01:43:06.574Z,101927.31
2023-01-31T01:45:34.669Z,101939.53
2023-01-31T01:48:07.065Z,101934.34
2023-01-31T01:50:41.161Z,101913.38
2023-01-31T01:53:14.675Z,101924.75
2023-01-31T01:55:45.887Z,101930.84
2023-01-31T01:58:20.025Z,101920.31
2023-01-31T02:00:49.539Z,101911.63
2023-01-31T02:03:18.124Z,101903.78
2023-01-31T02:05:50.796Z,101887.19
2023-01-31T02:08:28.884Z,101880.25
2023-01-31T02:11:00.112Z,101881.06
2023-01-31T02:13:41.138Z,101857.38
2023-01-31T02:16:09.446Z,101849.69
2023-01-31T02:18:37.594Z,101861.38
2023-01-31T02:21:37.607Z,101862.38
2023-01-31T02:24:29.249Z,101852.75
2023-01-31T02:27:14.933Z,101830.97
2023-01-31T02:30:29.701Z,101852.03
2023-01-31T02:33:11.689Z,101851.22
2023-01-31T02:35:53.405Z,101849.53
2023-01-31T02:38:36.730Z,101845.28
2023-01-31T02:41:17.106Z,101839.19
2023-01-31T02:44:10.613Z,101841.88
2023-01-31T02:47:01.811Z,101841.06
2023-01-31T02:49:39.604Z,101848.06
2023-01-31T02:52:20.421Z,101846.34
2023-01-31T02:55:14.029Z,101845.53
2023-01-31T02:57:44.379Z,101836.88
2023-01-31T03:00:14.840Z,101846.50
2023-01-31T03:02:42.863Z,101850.03
2023-01-31T03:05:18.214Z,101831.63
2023-01-31T03:07:49.387Z,101860.47
2023-01-31T03:10:47.856Z,101859.63
2023-01-31T03:13:46.143Z,101856.22
2023-01-31T03:16:43.544Z,101868.53
2023-01-31T03:19:17.594Z,101888.59
2023-01-31T03:21:50.313Z,101872.06
2023-01-31T03:24:20.831Z,101875.66
2023-01-31T03:26:49.269Z,101873.06
2023-01-31T03:29:20.420Z,101884.44
2023-01-31T03:31:53.335Z,101873.94
2023-01-31T03:34:21.935Z,101887.06
2023-01-31T03:36:57.227Z,101889.69
2023-01-31T03:39:37.629Z,101875.69
2023-01-31T03:42:09.149Z,101886.31
2023-01-31T03:44:45.833Z,101886.34
2023-01-31T03:47:19.049Z,101881.13
2023-01-31T03:49:49.185Z,101882.91
2023-01-31T03:52:24.290Z,101889.09
2023-01-31T03:54:56.308Z,101883.88
2023-01-31T03:57:27.041Z,101878.66
2023-01-31T03:59:59.370Z,101875.16
2023-01-31T04:02:34.272Z,101871.69
2023-01-31T04:05:09.254Z,101868.22
2023-01-31T04:07:41.221Z,101874.34
2023-01-31T04:10:13.191Z,101869.13
2023-01-31T04:12:41.279Z,101870.88
2023-01-31T04:15:11.260Z,101849.88
2023-01-31T04:17:39.349Z,101855.13
2023-01-31T04:20:10.061Z,101854.25
2023-01-31T04:22:39.863Z,101856.03
2023-01-31T04:25:09.104Z,101844.63
2023-01-31T04:27:37.700Z,101848.16
2023-01-31T04:30:06.769Z,101837.63
2023-01-31T04:32:34.767Z,101844.66
2023-01-31T04:35:02.969Z,101845.50
2023-01-31T04:37:31.102Z,101833.25
2023-01-31T04:40:00.471Z,101834.16
2023-01-31T04:42:28.607Z,101836.78
2023-01-31T04:44:56.636Z,101830.66
2023-01-31T04:47:24.564Z,101831.53
2023-01-31T04:49:52.574Z,101814.91
2023-01-31T04:52:20.503Z,101797.41
2023-01-31T04:54:48.513Z,101810.56
2023-01-31T04:57:17.720Z,101806.19
2023-01-31T04:59:45.668Z,101800.94
2023-01-31T05:02:15.073Z,101803.53
2023-01-31T05:04:43.078Z,101783.44
2023-01-31T05:07:11.153Z,101793.06
2023-01-31T05:09:38.986Z,101775.56
2023-01-31T05:12:07.977Z,101771.16
2023-01-31T05:14:37.370Z,101772.91
2023-01-31T05:17:05.777Z,101782.56
2023-01-31T05:19:33.660Z,101771.22
2023-01-31T05:22:01.584Z,101771.19
2023-01-31T05:24:33.320Z,101756.31
2023-01-31T05:27:02.683Z,101730.94
2023-01-31T05:29:33.633Z,101747.56
2023-01-31T05:32:06.115Z,101730.94
2023-01-31T05:34:34.843Z,101744.94
2023-01-31T05:37:04.088Z,101738.81
2023-01-31T05:39:32.390Z,101732.66
2023-01-31T05:42:02.970Z,101727.41
2023-01-31T05:44:32.684Z,101720.41
2023-01-31T05:47:01.605Z,101704.66
2023-01-31T05:49:33.516Z,101724.78
2023-01-31T05:52:02.141Z,101706.41
2023-01-31T05:54:30.226Z,101686.28
2023-01-31T05:57:00.309Z,101672.28
2023-01-31T05:59:31.068Z,101692.34
2023-01-31T06:01:59.019Z,101693.22
2023-01-31T06:04:27.298Z,101701.06
2023-01-31T06:06:56.666Z,101694.09
2023-01-31T06:09:25.689Z,101689.66
2023-01-31T06:11:53.793Z,101701.06
2023-01-31T06:14:21.798Z,101702.81
2023-01-31T06:16:49.811Z,101711.56
2023-01-31T06:19:17.713Z,101694.03
2023-01-31T06:21:46.610Z,101706.28
2023-01-31T06:24:15.841Z,101693.97
2023-01-31T06:26:43.834Z,101692.25
2023-01-31T06:29:12.024Z,101695.78
2023-01-31T06:31:40.248Z,101688.75
2023-01-31T06:34:08.341Z,101689.66
2023-01-31T06:36:37.325Z,101695.72
2023-01-31T06:39:06.510Z,101678.25
2023-01-31T06:41:35.888Z,101715.00
2023-01-31T06:44:04.089Z,101702.75
2023-01-31T06:46:32.925Z,101707.13
2023-01-31T06:49:03.183Z,101711.47
2023-01-31T06:51:31.720Z,101708.88
2023-01-31T06:54:00.711Z,101717.59
2023-01-31T06:56:28.663Z,101697.47
2023-01-31T06:58:58.110Z,101711.47
2023-01-31T07:01:26.880Z,101716.72
2023-01-31T07:03:54.858Z,101710.59
2023-01-31T07:06:23.021Z,101708.84
2023-01-31T07:08:51.071Z,101705.31
2023-01-31T07:11:19.267Z,101696.56
2023-01-31T07:13:47.975Z,101683.44
2023-01-31T07:16:18.342Z,101677.28
2023-01-31T07:18:46.517Z,101671.16
2023-01-31T07:21:14.586Z,101677.28
2023-01-31T07:23:45.538Z,101676.34
2023-01-31T07:26:15.837Z,101679.84
2023-01-31T07:28:43.790Z,101699.13
2023-01-31T07:31:14.186Z,101693.00
2023-01-31T07:33:43.585Z,101696.50
2023-01-31T07:36:15.543Z,101687.75
2023-01-31T07:38:45.525Z,101678.09
2023-01-31T07:41:14.384Z,101674.59
2023-01-31T07:43:43.341Z,101692.97
2023-01-31T07:46:11.501Z,101685.09
2023-01-31T07:48:45.012Z,101683.34
2023-01-31T07:51:14.220Z,101681.59
2023-01-31T07:53:44.038Z,101664.06
2023-01-31T07:56:15.007Z,101664.06
2023-01-31T07:58:44.650Z,101657.03
2023-01-31T08:01:36.843Z,101656.16
2023-01-31T08:04:20.161Z,101667.53
2023-01-31T08:06:49.581Z,101637.72
2023-01-31T08:09:17.451Z,101641.25
2023-01-31T08:11:46.090Z,101626.31
2023-01-31T08:14:15.627Z,101627.19
2023-01-31T08:16:44.617Z,101619.31
2023-01-31T08:19:14.171Z,101584.28
2023-01-31T08:21:42.701Z,101618.38
2023-01-31T08:24:11.074Z,101593.88
2023-01-31T08:26:39.198Z,101585.09
2023-01-31T08:29:07.169Z,101598.19
2023-01-31T08:31:35.300Z,101595.59
2023-01-31T08:34:03.323Z,101606.06
2023-01-31T08:36:33.142Z,101564.94
2023-01-31T08:39:01.815Z,101612.19
2023-01-31T08:41:31.426Z,101581.53
2023-01-31T08:44:00.415Z,101603.41
2023-01-31T08:46:32.371Z,101581.50
2023-01-31T08:49:01.839Z,101578.00
2023-01-31T08:51:30.224Z,101599.88
2023-01-31T08:53:59.695Z,101602.44
2023-01-31T08:56:28.042Z,101575.31
2023-01-31T08:58:58.799Z,101585.75
2023-01-31T09:01:27.419Z,101575.31
2023-01-31T09:03:59.241Z,101595.38
2023-01-31T09:06:29.128Z,101598.00
2023-01-31T09:08:59.936Z,101589.22
2023-01-31T09:11:29.029Z,101582.19
2023-01-31T09:13:57.564Z,101582.19
2023-01-31T09:16:25.603Z,101603.22
2023-01-31T09:18:54.435Z,101600.59
2023-01-31T09:21:23.746Z,101591.72
2023-01-31T09:23:57.054Z,101584.69
2023-01-31T09:26:26.787Z,101581.19
2023-01-31T09:29:01.529Z,101586.44
2023-01-31T09:31:30.411Z,101575.88
2023-01-31T09:33:59.137Z,101567.91
2023-01-31T09:36:27.791Z,101560.03
2023-01-31T09:38:57.153Z,101558.25
2023-01-31T09:41:33.520Z,101550.22
2023-01-31T09:44:05.309Z,101560.75
2023-01-31T09:46:38.116Z,101560.81
2023-01-31T09:49:11.790Z,101571.25
2023-01-31T09:51:41.375Z,101570.31
2023-01-31T09:54:19.696Z,101565.09
2023-01-31T09:56:55.959Z,101588.84
2023-01-31T09:59:28.584Z,101578.28
2023-01-31T10:02:04.310Z,101580.03
2023-01-31T10:04:55.174Z,101577.41
2023-01-31T10:07:30.549Z,101557.25
2023-01-31T10:10:10.103Z,101558.94
2023-01-31T10:12:46.108Z,101558.94
2023-01-31T10:15:19.052Z,101560.66
2023-01-31T10:17:52.880Z,101554.50
2023-01-31T10:20:25.242Z,101578.97
2023-01-31T10:23:02.553Z,101554.41
2023-01-31T10:25:38.393Z,101564.84
2023-01-31T10:28:13.694Z,101577.13
2023-01-31T10:30:47.307Z,101583.22
2023-01-31T10:33:28.105Z,101571.94
2023-01-31T10:35:58.532Z,101558.91
2023-01-31T10:38:34.439Z,101553.75
2023-01-31T10:41:14.172Z,101545.88
2023-01-31T10:43:51.035Z,101529.34
2023-01-31T10:46:21.973Z,101519.69
2023-01-31T10:48:51.616Z,101492.56
2023-01-31T10:51:35.076Z,101458.34
2023-01-31T10:54:17.691Z,101449.59
2023-01-31T10:56:48.567Z,101432.06
2023-01-31T10:59:27.449Z,101412.69
2023-01-31T11:01:55.763Z,101385.69
2023-01-31T11:04:39.469Z,101386.44
2023-01-31T11:07:07.958Z,101358.47
2023-01-31T11:09:42.103Z,101355.66
2023-01-31T11:12:13.370Z,101341.59
2023-01-31T11:14:45.516Z,101294.47
2023-01-31T11:17:18.476Z,101308.31
2023-01-31T11:19:50.480Z,101299.66
2023-01-31T11:22:25.519Z,101329.28
2023-01-31T11:24:54.943Z,101324.84
2023-01-31T11:27:30.899Z,101309.19
2023-01-31T11:30:01.101Z,101307.31
2023-01-31T11:32:31.062Z,101309.13
2023-01-31T11:35:03.653Z,101296.03
2023-01-31T11:37:34.708Z,101301.13
2023-01-31T11:40:10.551Z,101306.28
2023-01-31T11:42:53.691Z,101308.06
2023-01-31T11:45:27.724Z,101297.63
2023-01-31T11:47:58.618Z,101272.28
2023-01-31T11:50:34.315Z,101292.31
2023-01-31T11:53:04.376Z,101304.59
2023-01-31T11:55:40.566Z,101302.84
2023-01-31T11:58:20.983Z,101287.75
2023-01-31T12:01:02.413Z,101271.13
2023-01-31T12:03:33.828Z,101270.94
2023-01-31T12:06:07.330Z,101253.22
2023-01-31T12:08:37.782Z,101254.81
2023-01-31T12:11:59.226Z,101256.31
2023-01-31T12:15:00.530Z,101231.81
2023-01-31T12:17:33.057Z,101241.19
2023-01-31T12:20:28.380Z,101245.34
2023-01-31T12:23:24.653Z,101228.53
2023-01-31T12:26:42.255Z,101266.84
2023-01-31T12:29:31.977Z,101245.69
2023-01-31T12:32:18.686Z,101237.91
2023-01-31T12:35:12.033Z,101232.50
2023-01-31T12:37:53.069Z,101246.66
2023-01-31T12:40:38.433Z,101250.81
2023-01-31T12:43:26.605Z,101205.41
2023-01-31T12:46:07.334Z,101231.41
2023-01-31T12:49:11.314Z,101242.56
2023-01-31T12:51:50.164Z,101243.31
2023-01-31T12:54:41.688Z,101241.72
2023-01-31T12:57:24.461Z,101231.88
2023-01-31T13:00:03.386Z,101254.31
2023-01-31T13:02:42.066Z,101260.16
2023-01-31T13:05:28.571Z,101253.16
2023-01-31T13:08:03.769Z,101283.75
2023-01-31T13:10:38.955Z,101303.22
2023-01-31T13:13:16.920Z,101317.44
2023-01-31T13:15:50.364Z,101319.38
2023-01-31T13:18:19.750Z,101333.41
2023-01-31T13:20:53.368Z,101350.03
2023-01-31T13:23:29.951Z,101379.94
2023-01-31T13:26:03.609Z,101400.22
2023-01-31T13:28:37.146Z,101409.94
2023-01-31T13:31:09.619Z,101419.38
2023-01-31T13:33:41.381Z,101449.09
2023-01-31T13:36:24.301Z,101451.84
2023-01-31T13:38:54.327Z,101471.22
2023-01-31T13:41:29.122Z,101474.72
2023-01-31T13:43:59.005Z,101505.41
2023-01-31T13:46:33.580Z,101533.66
2023-01-31T13:49:06.824Z,101515.97
2023-01-31T13:51:42.117Z,101535.34
2023-01-31T13:54:23.587Z,101550.34
2023-01-31T13:56:55.182Z,101546.81
2023-01-31T13:59:25.295Z,101566.13
2023-01-31T14:01:56.002Z,101576.63
2023-01-31T14:04:39.842Z,101592.34
2023-01-31T14:07:23.955Z,101603.72
2023-01-31T14:10:29.531Z,101600.34
2023-01-31T14:13:27.732Z,101617.09
2023-01-31T14:15:58.210Z,101596.88
2023-01-31T14:18:40.528Z,101617.03
2023-01-31T14:21:54.153Z,101616.97
2023-01-31T14:25:04.699Z,101622.22
2023-01-31T14:27:37.831Z,101603.91
2023-01-31T14:30:18.015Z,101611.75
2023-01-31T14:32:49.967Z,101618.75
2023-01-31T14:35:36.497Z,101617.06
2023-01-31T14:38:14.906Z,101632.81
2023-01-31T14:40:50.065Z,101622.38
2023-01-31T14:43:42.776Z,101617.03
2023-01-31T14:46:28.069Z,101629.44
2023-01-31T14:49:22.522Z,101623.34
2023-01-31T14:52:26.264Z,101624.31
2023-01-31T14:55:10.428Z,101635.69
2023-01-31T14:57:44.044Z,101636.66
2023-01-31T15:00:28.135Z,101656.06
2023-01-31T15:03:03.329Z,101651.69
2023-01-31T15:05:45.485Z,101659.66
2023-01-31T15:08:35.020Z,101666.72
2023-01-31T15:11:04.814Z,101679.81
2023-01-31T15:13:58.267Z,101684.19
2023-01-31T15:16:30.017Z,101663.28
2023-01-31T15:19:06.613Z,101684.31
2023-01-31T15:21:40.311Z,101681.78
2023-01-31T15:24:17.443Z,101672.28
2023-01-31T15:26:46.934Z,101682.78
2023-01-31T15:29:20.647Z,101679.34
2023-01-31T15:31:53.355Z,101669.69
2023-01-31T15:34:24.907Z,101680.25
2023-01-31T15:37:02.134Z,101699.56
2023-01-31T15:39:35.448Z,101678.50
2023-01-31T15:42:22.016Z,101674.38
2023-01-31T15:44:50.041Z,101683.09
2023-01-31T15:47:24.557Z,101683.16
2023-01-31T15:49:52.789Z,101674.25
2023-01-31T15:52:22.489Z,101665.44
2023-01-31T15:54:55.993Z,101670.03
2023-01-31T15:57:27.619Z,101668.31
2023-01-31T15:59:57.754Z,101683.50
2023-01-31T16:02:31.763Z,101666.00
2023-01-31T16:05:00.686Z,101680.94
2023-01-31T16:07:31.744Z,101681.97
2023-01-31T16:10:02.046Z,101676.75
2023-01-31T16:12:32.589Z,101698.03
2023-01-31T16:15:06.969Z,101697.88
2023-01-31T16:17:36.625Z,101701.59
2023-01-31T16:20:06.785Z,101709.50
2023-01-31T16:22:34.970Z,101715.63
2023-01-31T16:25:05.359Z,101711.44
2023-01-31T16:27:38.813Z,101712.25
2023-01-31T16:30:07.910Z,101714.88
2023-01-31T16:32:41.819Z,101693.91
2023-01-31T16:35:24.734Z,101706.28
2023-01-31T16:38:07.879Z,101716.81
2023-01-31T16:40:38.423Z,101706.41
2023-01-31T16:43:12.373Z,101720.59
2023-01-31T16:45:51.882Z,101727.63
2023-01-31T16:48:28.391Z,101720.59
2023-01-31T16:50:58.577Z,101719.63
2023-01-31T16:53:31.962Z,101718.84
2023-01-31T16:56:22.038Z,101721.50
2023-01-31T16:58:55.636Z,101706.72
2023-01-31T17:01:28.214Z,101689.97
2023-01-31T17:04:07.216Z,101705.72
2023-01-31T17:06:42.671Z,101708.34
2023-01-31T17:09:19.218Z,101706.59
2023-01-31T17:11:48.080Z,101711.13
2023-01-31T17:14:16.184Z,101727.72
2023-01-31T17:16:44.342Z,101732.06
2023-01-31T17:19:13.738Z,101742.59
2023-01-31T17:21:43.903Z,101754.09
2023-01-31T17:24:14.734Z,101748.03
2023-01-31T17:26:45.181Z,101749.72
2023-01-31T17:29:13.623Z,101757.56
2023-01-31T17:31:42.400Z,101751.50
2023-01-31T17:34:15.803Z,101726.03
2023-01-31T17:36:45.555Z,101709.41
2023-01-31T17:39:13.745Z,101709.44
2023-01-31T17:41:42.173Z,101685.69
2023-01-31T17:44:14.513Z,101686.59
2023-01-31T17:46:44.324Z,101702.41
2023-01-31T17:49:13.937Z,101683.13
2023-01-31T17:51:46.048Z,101665.59
2023-01-31T17:54:17.499Z,101683.06
2023-01-31T17:56:45.772Z,101680.50
2023-01-31T17:59:21.801Z,101685.84
2023-01-31T18:01:54.657Z,101691.00
2023-01-31T18:04:24.127Z,101676.09
2023-01-31T18:06:53.246Z,101690.16
2023-01-31T18:09:21.351Z,101678.81
2023-01-31T18:11:49.519Z,101689.34
2023-01-31T18:14:17.598Z,101675.34
2023-01-31T18:16:45.557Z,101687.59
2023-01-31T18:19:14.423Z,101678.00
2023-01-31T18:21:54.405Z,101687.53
2023-01-31T18:24:22.967Z,101671.78
2023-01-31T18:26:51.026Z,101671.84
2023-01-31T18:29:21.206Z,101660.47
2023-01-31T18:31:50.093Z,101683.25
2023-01-31T18:34:18.266Z,101676.25
2023-01-31T18:36:49.190Z,101671.03
2023-01-31T18:39:17.138Z,101676.31
2023-01-31T18:41:45.112Z,101668.41
2023-01-31T18:44:13.305Z,101696.44
2023-01-31T18:46:41.417Z,101718.31
2023-01-31T18:49:09.487Z,101715.66
2023-01-31T18:51:37.440Z,101735.88
2023-01-31T18:54:07.981Z,101739.34
2023-01-31T18:56:41.165Z,101734.97
2023-01-31T18:59:11.166Z,101739.34
2023-01-31T19:01:43.525Z,101718.31
2023-01-31T19:04:11.734Z,101710.44
2023-01-31T19:06:41.189Z,101712.13
2023-01-31T19:09:11.784Z,101704.25
2023-01-31T19:11:46.892Z,101711.28
2023-01-31T19:14:16.231Z,101696.38
2023-01-31T19:16:46.039Z,101712.16
2023-01-31T19:19:15.177Z,101709.56
2023-01-31T19:21:51.281Z,101703.44
2023-01-31T19:24:21.476Z,101718.38
2023-01-31T19:26:50.176Z,101703.47
2023-01-31T19:29:18.389Z,101673.78
2023-01-31T19:31:48.517Z,101718.41
2023-01-31T19:34:16.637Z,101710.50
2023-01-31T19:36:49.528Z,101701.72
2023-01-31T19:39:28.063Z,101721.00
2023-01-31T19:41:58.512Z,101710.44
2023-01-31T19:44:26.795Z,101701.69
2023-01-31T19:47:02.975Z,101710.50
2023-01-31T19:49:33.218Z,101705.25
2023-01-31T19:52:01.154Z,101693.00
2023-01-31T19:54:30.681Z,101690.38
2023-01-31T19:56:58.809Z,101696.50
2023-01-31T19:59:27.977Z,101692.09
2023-01-31T20:01:57.374Z,101712.25
2023-01-31T20:04:25.812Z,101704.41
2023-01-31T20:06:54.030Z,101707.00
2023-01-31T20:09:22.248Z,101672.94
2023-01-31T20:11:54.050Z,101710.59
2023-01-31T20:14:25.361Z,101708.84
2023-01-31T20:16:53.605Z,101711.41
2023-01-31T20:19:23.664Z,101711.41
2023-01-31T20:21:51.585Z,101704.47
2023-01-31T20:24:19.863Z,101714.91
2023-01-31T20:26:55.609Z,101692.22
2023-01-31T20:29:23.723Z,101700.94
2023-01-31T20:31:52.224Z,101688.69
2023-01-31T20:34:20.552Z,101678.19
2023-01-31T20:36:49.024Z,101681.69
2023-01-31T20:39:17.227Z,101672.94
2023-01-31T20:41:46.198Z,101665.06
2023-01-31T20:44:16.166Z,101693.88
2023-01-31T20:46:44.437Z,101661.50
2023-01-31T20:49:12.763Z,101678.94
2023-01-31T20:51:43.287Z,101685.13
2023-01-31T20:54:12.804Z,101681.66
2023-01-31T20:56:48.573Z,101678.09
2023-01-31T20:59:20.463Z,101667.56
2023-01-31T21:01:49.511Z,101650.97
2023-01-31T21:04:18.895Z,101670.25
2023-01-31T21:06:48.359Z,101667.66
2023-01-31T21:09:19.180Z,101664.94
2023-01-31T21:11:51.105Z,101642.28
2023-01-31T21:14:20.922Z,101664.16
2023-01-31T21:16:50.297Z,101671.16
2023-01-31T21:19:38.777Z,101666.78
2023-01-31T21:22:08.220Z,101644.88
2023-01-31T21:24:36.984Z,101655.31
2023-01-31T21:27:10.064Z,101668.53
2023-01-31T21:29:41.819Z,101659.78
2023-01-31T21:32:13.898Z,101672.94
2023-01-31T21:34:44.681Z,101653.75
2023-01-31T21:37:13.089Z,101700.19
2023-01-31T21:39:45.164Z,101715.88
2023-01-31T21:42:19.692Z,101710.63
2023-01-31T21:44:49.377Z,101691.41
2023-01-31T21:47:18.723Z,101701.84
2023-01-31T21:49:48.588Z,101702.72
2023-01-31T21:52:16.648Z,101683.50
2023-01-31T21:54:45.798Z,101695.72
2023-01-31T21:57:14.053Z,101685.19
2023-01-31T21:59:42.847Z,101657.16
2023-01-31T22:02:12.610Z,101670.28
2023-01-31T22:04:40.966Z,101684.22
2023-01-31T22:07:10.221Z,101683.34
2023-01-31T22:09:39.024Z,101660.66
2023-01-31T22:12:08.315Z,101653.66
2023-01-31T22:14:37.506Z,101662.31
2023-01-31T22:17:21.219Z,101662.31
2023-01-31T22:19:49.548Z,101666.69
2023-01-31T22:22:17.969Z,101615.97
2023-01-31T22:24:54.885Z,101665.78
2023-01-31T22:27:23.036Z,101656.13
2023-01-31T22:29:54.169Z,101638.63
2023-01-31T22:32:26.553Z,101621.09
2023-01-31T22:34:54.967Z,101672.72
2023-01-31T22:37:23.487Z,101643.78
2023-01-31T22:39:59.724Z,101650.81
2023-01-31T22:42:31.941Z,101648.16
2023-01-31T22:45:07.335Z,101630.69
2023-01-31T22:47:36.812Z,101637.66
2023-01-31T22:50:05.201Z,101630.66
2023-01-31T22:52:43.265Z,101629.81
2023-01-31T22:55:12.865Z,101620.19
2023-01-31T22:57:42.005Z,101614.13
2023-01-31T23:00:11.599Z,101613.25
2023-01-31T23:02:41.093Z,101618.44
2023-01-31T23:05:10.528Z,101618.47
2023-01-31T23:07:38.462Z,101615.84
2023-01-31T23:10:14.634Z,101606.28
2023-01-31T23:12:47.410Z,101614.09
2023-01-31T23:15:19.859Z,101581.81
2023-01-31T23:17:53.659Z,101604.47
2023-01-31T23:20:24.820Z,101607.09
2023-01-31T23:22:58.102Z,101601.91
2023-01-31T23:25:27.740Z,101599.22
2023-01-31T23:35:32.684Z,101596.66
2023-01-31T23:38:00.755Z,101598.28
2023-01-31T23:40:34.446Z,101605.28
2023-01-31T23:43:04.919Z,101602.66
2023-01-31T23:45:33.262Z,101551.88
2023-01-31T23:48:02.373Z,101586.75
2023-01-31T23:50:30.405Z,101581.59
2023-01-31T23:53:00.893Z,101563.22
2023-01-31T23:55:30.331Z,101595.56
2023-01-31T23:57:58.378Z,101588.53
